createdAt,value
2018-11-07T00:00:12.828Z,0.00
2018-11-07T00:01:12.807Z,0.00
2018-11-07T00:02:12.746Z,0.00
2018-11-07T00:03:12.726Z,0.00
2018-11-07T00:04:12.719Z,0.00
2018-11-07T00:05:12.659Z,0.00
2018-11-07T00:06:12.643Z,0.00
2018-11-07T00:07:12.596Z,0.00
2018-11-07T00:08:12.710Z,0.00
2018-11-07T00:09:12.529Z,0.00
2018-11-07T00:10:12.518Z,0.00
2018-11-07T00:11:12.454Z,0.00
2018-11-07T00:12:12.440Z,0.00
2018-11-07T00:13:12.423Z,0.00
2018-11-07T00:14:12.380Z,0.00
2018-11-07T00:15:12.334Z,0.00
2018-11-07T00:16:13.526Z,0.00
2018-11-07T00:17:12.269Z,0.00
2018-11-07T00:18:12.244Z,0.00
2018-11-07T00:19:12.215Z,0.00
2018-11-07T00:20:12.169Z,0.00
2018-11-07T00:21:12.155Z,0.00
2018-11-07T00:22:12.137Z,0.00
2018-11-07T00:23:12.069Z,0.00
2018-11-07T00:25:12.110Z,0.00
2018-11-07T00:26:11.993Z,0.00
2018-11-07T00:27:12.039Z,0.00
2018-11-07T00:28:11.919Z,0.00
2018-11-07T00:29:11.906Z,0.00
2018-11-07T00:30:12.221Z,0.00
2018-11-07T00:31:11.859Z,0.00
2018-11-07T00:32:11.820Z,0.00
2018-11-07T00:33:11.765Z,0.00
2018-11-07T00:34:11.726Z,0.00
2018-11-07T00:35:11.800Z,0.00
2018-11-07T00:36:11.646Z,0.00
2018-11-07T00:37:11.676Z,0.00
2018-11-07T00:38:11.598Z,0.00
2018-11-07T00:39:11.553Z,0.00
2018-11-07T00:40:11.560Z,0.00
2018-11-07T00:41:11.511Z,0.00
2018-11-07T00:42:11.487Z,0.00
2018-11-07T00:43:11.441Z,0.00
2018-11-07T00:44:11.400Z,0.00
2018-11-07T00:45:11.377Z,0.00
2018-11-07T00:46:11.340Z,0.00
2018-11-07T00:47:11.304Z,0.00
2018-11-07T00:48:11.281Z,0.00
2018-11-07T00:49:11.245Z,0.00
2018-11-07T00:50:11.210Z,0.00
2018-11-07T00:51:11.181Z,0.00
2018-11-07T00:52:11.168Z,0.00
2018-11-07T00:53:11.103Z,0.00
2018-11-07T00:54:11.130Z,0.00
2018-11-07T00:55:11.047Z,0.00
2018-11-07T00:56:11.018Z,0.00
2018-11-07T00:57:10.998Z,0.00
2018-11-07T00:58:11.033Z,0.00
2018-11-07T00:59:10.905Z,0.00
2018-11-07T01:00:10.923Z,0.00
2018-11-07T01:01:10.876Z,0.00
2018-11-07T01:02:10.975Z,0.00
2018-11-07T01:03:10.786Z,0.00
2018-11-07T01:04:10.745Z,0.00
2018-11-07T01:05:10.746Z,0.00
2018-11-07T01:06:10.729Z,0.00
2018-11-07T01:07:10.660Z,0.00
2018-11-07T01:08:10.638Z,0.00
2018-11-07T01:09:10.620Z,0.00
2018-11-07T01:10:10.572Z,0.00
2018-11-07T01:11:10.555Z,0.00
2018-11-07T01:12:10.506Z,0.00
2018-11-07T01:13:10.555Z,0.00
2018-11-07T01:14:10.445Z,0.00
2018-11-07T01:15:10.408Z,0.00
2018-11-07T01:16:10.373Z,0.00
2018-11-07T01:17:10.340Z,0.00
2018-11-07T01:18:10.292Z,0.00
2018-11-07T01:19:10.279Z,0.00
2018-11-07T01:20:10.270Z,0.00
2018-11-07T01:21:10.224Z,0.00
2018-11-07T01:22:10.246Z,0.00
2018-11-07T01:23:10.146Z,0.00
2018-11-07T01:24:10.143Z,0.00
2018-11-07T01:25:10.083Z,0.00
2018-11-07T01:26:10.061Z,0.00
2018-11-07T01:27:10.013Z,0.00
2018-11-07T01:28:10.017Z,0.00
2018-11-07T01:29:09.998Z,0.00
2018-11-07T01:30:09.919Z,0.00
2018-11-07T01:31:09.883Z,0.00
2018-11-07T01:32:09.850Z,0.00
2018-11-07T01:33:09.818Z,0.00
2018-11-07T01:34:09.772Z,0.00
2018-11-07T01:35:09.952Z,0.00
2018-11-07T01:36:09.737Z,0.00
2018-11-07T01:37:09.685Z,0.00
2018-11-07T01:38:09.658Z,0.00
2018-11-07T01:39:09.617Z,0.00
2018-11-07T01:40:09.580Z,0.00
2018-11-07T01:41:09.572Z,0.00
2018-11-07T01:42:09.627Z,0.00
2018-11-07T01:43:09.485Z,0.00
2018-11-07T01:44:09.482Z,0.00
2018-11-07T01:45:09.432Z,0.00
2018-11-07T01:46:09.389Z,0.00
2018-11-07T01:47:09.421Z,0.00
2018-11-07T01:48:09.368Z,0.00
2018-11-07T01:49:09.304Z,0.00
2018-11-07T01:50:09.410Z,0.00
2018-11-07T01:51:09.284Z,0.00
2018-11-07T01:52:09.198Z,0.00
2018-11-07T01:53:09.170Z,0.00
2018-11-07T01:54:09.144Z,0.00
2018-11-07T01:55:09.093Z,0.00
2018-11-07T01:56:09.082Z,0.00
2018-11-07T01:57:09.032Z,0.00
2018-11-07T01:58:09.022Z,0.00
2018-11-07T01:59:08.969Z,0.00
2018-11-07T02:00:08.930Z,0.00
2018-11-07T02:01:08.905Z,0.00
2018-11-07T02:02:08.871Z,0.00
2018-11-07T02:03:08.835Z,0.00
2018-11-07T02:04:08.815Z,0.00
2018-11-07T02:05:08.781Z,0.00
2018-11-07T02:06:08.773Z,0.00
2018-11-07T02:07:08.713Z,0.00
2018-11-07T02:08:08.670Z,0.00
2018-11-07T02:09:08.655Z,0.00
2018-11-07T02:10:08.610Z,0.00
2018-11-07T02:11:08.583Z,0.00
2018-11-07T02:12:08.561Z,0.00
2018-11-07T02:13:08.533Z,0.00
2018-11-07T02:14:08.487Z,0.00
2018-11-07T02:15:08.473Z,0.00
2018-11-07T02:16:08.412Z,0.00
2018-11-07T02:17:08.389Z,0.00
2018-11-07T02:19:08.332Z,0.00
2018-11-07T02:20:08.304Z,0.00
2018-11-07T02:21:08.260Z,0.00
2018-11-07T02:22:08.246Z,0.00
2018-11-07T02:23:08.190Z,0.00
2018-11-07T02:25:08.132Z,0.00
2018-11-07T02:26:08.123Z,0.00
2018-11-07T02:27:08.067Z,0.00
2018-11-07T02:28:08.030Z,0.00
2018-11-07T02:29:07.991Z,0.00
2018-11-07T02:30:07.981Z,0.00
2018-11-07T02:31:07.943Z,0.00
2018-11-07T02:32:07.914Z,0.00
2018-11-07T02:33:07.889Z,0.00
2018-11-07T02:35:07.808Z,0.00
2018-11-07T02:36:07.770Z,0.00
2018-11-07T02:37:07.784Z,0.00
2018-11-07T02:38:07.708Z,0.00
2018-11-07T02:39:07.666Z,0.00
2018-11-07T02:40:07.640Z,0.00
2018-11-07T02:41:07.609Z,0.00
2018-11-07T02:42:07.603Z,0.00
2018-11-07T02:43:07.541Z,0.00
2018-11-07T02:44:07.668Z,0.00
2018-11-07T02:45:07.471Z,0.00
2018-11-07T02:46:07.444Z,0.00
2018-11-07T02:47:07.423Z,0.00
2018-11-07T02:48:07.383Z,0.00
2018-11-07T02:49:07.357Z,0.00
2018-11-07T02:50:07.338Z,0.00
2018-11-07T02:51:07.298Z,0.00
2018-11-07T02:52:07.275Z,0.00
2018-11-07T02:53:07.223Z,0.00
2018-11-07T02:54:07.181Z,0.00
2018-11-07T02:55:07.150Z,0.00
2018-11-07T02:56:07.120Z,0.00
2018-11-07T02:57:07.097Z,0.00
2018-11-07T02:58:07.054Z,0.00
2018-11-07T02:59:07.037Z,0.00
2018-11-07T03:00:07.238Z,0.00
2018-11-07T03:01:07.030Z,0.00
2018-11-07T03:02:06.939Z,0.00
2018-11-07T03:03:06.895Z,0.00
2018-11-07T03:04:06.894Z,0.00
2018-11-07T03:05:06.846Z,0.00
2018-11-07T03:06:06.956Z,0.00
2018-11-07T03:07:06.773Z,0.00
2018-11-07T03:08:06.747Z,0.00
2018-11-07T03:09:06.730Z,0.00
2018-11-07T03:10:06.696Z,0.00
2018-11-07T03:11:06.653Z,0.00
2018-11-07T03:12:06.617Z,0.00
2018-11-07T03:13:06.603Z,0.00
2018-11-07T03:14:06.560Z,0.00
2018-11-07T03:15:06.527Z,0.00
2018-11-07T03:16:06.474Z,0.00
2018-11-07T03:17:06.456Z,0.00
2018-11-07T03:18:06.418Z,0.00
2018-11-07T03:19:06.388Z,0.00
2018-11-07T03:20:06.365Z,0.00
2018-11-07T03:21:06.314Z,0.00
2018-11-07T03:22:06.294Z,0.00
2018-11-07T03:23:06.263Z,0.00
2018-11-07T03:24:06.237Z,0.00
2018-11-07T03:25:06.195Z,0.00
2018-11-07T03:26:06.171Z,0.00
2018-11-07T03:27:06.132Z,0.00
2018-11-07T03:28:06.099Z,0.00
2018-11-07T03:29:06.073Z,0.00
2018-11-07T03:30:06.052Z,0.00
2018-11-07T03:31:06.021Z,0.00
2018-11-07T03:32:06.153Z,0.00
2018-11-07T03:33:05.924Z,0.00
2018-11-07T03:34:05.908Z,0.00
2018-11-07T03:35:05.861Z,0.00
2018-11-07T03:36:05.827Z,0.00
2018-11-07T03:37:05.805Z,0.00
2018-11-07T03:38:05.866Z,0.00
2018-11-07T03:39:05.738Z,0.00
2018-11-07T03:40:05.694Z,0.00
2018-11-07T03:41:05.660Z,0.00
2018-11-07T03:42:05.626Z,0.00
2018-11-07T03:43:05.599Z,0.00
2018-11-07T03:44:05.596Z,0.00
2018-11-07T03:45:05.550Z,0.00
2018-11-07T03:46:05.523Z,0.00
2018-11-07T03:47:05.478Z,0.00
2018-11-07T03:48:05.433Z,0.00
2018-11-07T03:49:05.403Z,0.00
2018-11-07T03:50:05.370Z,0.00
2018-11-07T03:51:05.354Z,0.00
2018-11-07T03:52:05.319Z,0.00
2018-11-07T03:53:05.337Z,0.00
2018-11-07T03:54:05.250Z,0.00
2018-11-07T03:55:05.224Z,0.00
2018-11-07T03:56:05.200Z,0.00
2018-11-07T03:57:05.161Z,0.00
2018-11-07T03:58:05.109Z,0.00
2018-11-07T03:59:05.149Z,0.00
2018-11-07T04:00:05.051Z,0.00
2018-11-07T04:01:05.021Z,0.00
2018-11-07T04:02:04.986Z,0.00
2018-11-07T04:03:04.964Z,0.00
2018-11-07T04:04:04.923Z,0.00
2018-11-07T04:05:05.105Z,0.00
2018-11-07T04:06:04.864Z,0.00
2018-11-07T04:07:04.835Z,0.00
2018-11-07T04:08:04.811Z,0.00
2018-11-07T04:09:04.769Z,0.00
2018-11-07T04:10:04.745Z,0.00
2018-11-07T04:11:04.856Z,0.00
2018-11-07T04:12:04.657Z,0.00
2018-11-07T04:13:04.633Z,0.00
2018-11-07T04:14:04.602Z,0.00
2018-11-07T04:15:04.577Z,0.00
2018-11-07T04:16:04.550Z,0.00
2018-11-07T04:17:04.496Z,0.00
2018-11-07T04:18:04.464Z,0.00
2018-11-07T04:19:04.433Z,0.00
2018-11-07T04:20:04.408Z,0.00
2018-11-07T04:21:04.394Z,0.00
2018-11-07T04:22:04.347Z,0.00
2018-11-07T04:23:04.302Z,0.00
2018-11-07T04:24:04.286Z,0.00
2018-11-07T04:25:04.301Z,0.00
2018-11-07T04:26:04.304Z,0.00
2018-11-07T04:27:04.195Z,0.00
2018-11-07T04:28:04.139Z,0.00
2018-11-07T04:29:04.138Z,0.00
2018-11-07T04:30:04.085Z,0.00
2018-11-07T04:31:04.041Z,0.00
2018-11-07T04:32:04.235Z,0.00
2018-11-07T04:33:03.995Z,0.00
2018-11-07T04:34:03.951Z,0.00
2018-11-07T04:35:03.912Z,0.00
2018-11-07T04:36:03.901Z,0.00
2018-11-07T04:37:03.865Z,0.00
2018-11-07T04:38:03.939Z,0.00
2018-11-07T04:39:03.843Z,0.00
2018-11-07T04:40:03.770Z,0.00
2018-11-07T04:41:03.735Z,0.00
2018-11-07T04:42:03.700Z,0.00
2018-11-07T04:43:03.653Z,0.00
2018-11-07T04:44:03.637Z,0.00
2018-11-07T04:45:03.612Z,0.00
2018-11-07T04:46:03.558Z,0.00
2018-11-07T04:47:03.540Z,0.00
2018-11-07T04:48:03.515Z,0.00
2018-11-07T04:49:03.576Z,0.00
2018-11-07T04:50:03.436Z,0.00
2018-11-07T04:51:03.467Z,0.00
2018-11-07T04:52:03.383Z,0.00
2018-11-07T04:53:03.351Z,0.00
2018-11-07T04:54:03.318Z,0.00
2018-11-07T04:55:03.278Z,0.00
2018-11-07T04:56:03.258Z,0.00
2018-11-07T04:57:03.219Z,0.00
2018-11-07T04:58:03.176Z,0.00
2018-11-07T04:59:03.154Z,0.00
2018-11-07T05:00:03.126Z,0.00
2018-11-07T05:01:03.088Z,0.00
2018-11-07T05:02:03.076Z,0.00
2018-11-07T05:03:03.025Z,0.00
2018-11-07T05:04:02.990Z,0.00
2018-11-07T05:05:02.946Z,0.00
2018-11-07T05:06:02.931Z,0.00
2018-11-07T05:07:02.880Z,0.00
2018-11-07T05:08:02.866Z,0.00
2018-11-07T05:09:02.833Z,0.00
2018-11-07T05:10:02.798Z,0.00
2018-11-07T05:11:02.765Z,0.00
2018-11-07T05:12:02.740Z,0.00
2018-11-07T05:13:02.686Z,0.00
2018-11-07T05:14:02.671Z,0.00
2018-11-07T05:15:02.620Z,0.00
2018-11-07T05:16:02.617Z,0.00
2018-11-07T05:17:02.556Z,0.00
2018-11-07T05:18:02.541Z,0.00
2018-11-07T05:19:02.489Z,0.00
2018-11-07T05:20:02.457Z,0.00
2018-11-07T05:21:02.626Z,0.00
2018-11-07T05:22:02.397Z,0.00
2018-11-07T05:23:02.376Z,0.00
2018-11-07T05:24:02.330Z,0.00
2018-11-07T05:25:02.305Z,0.00
2018-11-07T05:26:02.351Z,0.00
2018-11-07T05:27:02.247Z,0.00
2018-11-07T05:28:02.198Z,0.00
2018-11-07T05:29:02.183Z,0.00
2018-11-07T05:30:02.156Z,0.00
2018-11-07T05:31:02.125Z,0.00
2018-11-07T05:32:02.133Z,0.00
2018-11-07T05:33:02.040Z,0.00
2018-11-07T05:34:02.053Z,0.00
2018-11-07T05:35:01.989Z,0.00
2018-11-07T05:36:01.962Z,0.00
2018-11-07T05:37:01.937Z,0.00
2018-11-07T05:38:01.888Z,0.00
2018-11-07T05:39:01.870Z,0.00
2018-11-07T05:40:01.825Z,0.00
2018-11-07T05:41:01.854Z,0.00
2018-11-07T05:42:01.749Z,0.00
2018-11-07T05:43:01.726Z,0.00
2018-11-07T05:44:01.699Z,0.00
2018-11-07T05:45:01.662Z,0.00
2018-11-07T05:46:01.641Z,0.00
2018-11-07T05:47:01.609Z,0.00
2018-11-07T05:48:01.571Z,0.00
2018-11-07T05:49:01.590Z,0.00
2018-11-07T05:50:01.505Z,0.00
2018-11-07T05:51:01.461Z,0.00
2018-11-07T05:52:01.838Z,0.00
2018-11-07T05:53:01.393Z,0.00
2018-11-07T05:54:01.369Z,0.00
2018-11-07T05:55:01.329Z,0.00
2018-11-07T05:56:01.315Z,0.00
2018-11-07T05:57:01.267Z,0.00
2018-11-07T05:58:01.250Z,0.00
2018-11-07T05:59:01.208Z,0.00
2018-11-07T06:00:01.175Z,0.00
2018-11-07T06:01:01.152Z,0.00
2018-11-07T06:02:01.120Z,0.00
2018-11-07T06:03:01.147Z,0.00
2018-11-07T06:04:01.041Z,0.00
2018-11-07T06:05:01.042Z,0.00
2018-11-07T06:06:01.047Z,0.00
2018-11-07T06:07:00.952Z,0.00
2018-11-07T06:08:00.931Z,0.00
2018-11-07T06:09:01.090Z,0.00
2018-11-07T06:10:00.869Z,0.00
2018-11-07T06:11:00.811Z,0.00
2018-11-07T06:12:00.799Z,0.00
2018-11-07T06:13:00.744Z,0.00
2018-11-07T06:14:00.716Z,0.00
2018-11-07T06:15:00.698Z,0.00
2018-11-07T06:16:00.705Z,0.00
2018-11-07T06:17:00.632Z,0.00
2018-11-07T06:18:00.611Z,0.00
2018-11-07T06:19:00.555Z,0.00
2018-11-07T06:20:00.637Z,0.00
2018-11-07T06:21:00.514Z,0.00
2018-11-07T06:22:00.459Z,0.00
2018-11-07T06:23:00.500Z,0.00
2018-11-07T06:24:00.391Z,0.00
2018-11-07T06:25:00.455Z,0.00
2018-11-07T06:26:00.331Z,0.00
2018-11-07T06:27:00.300Z,0.00
2018-11-07T06:28:00.283Z,0.00
2018-11-07T06:29:00.229Z,0.00
2018-11-07T06:30:00.201Z,0.00
2018-11-07T06:31:00.167Z,0.00
2018-11-07T06:32:00.145Z,0.00
2018-11-07T06:33:00.123Z,0.00
2018-11-07T06:34:00.137Z,0.00
2018-11-07T06:35:00.037Z,0.00
2018-11-07T06:36:00.158Z,0.00
2018-11-07T06:36:59.985Z,0.00
2018-11-07T06:37:59.955Z,0.00
2018-11-07T06:38:59.921Z,0.00
2018-11-07T06:39:59.888Z,0.00
2018-11-07T06:40:59.859Z,0.00
2018-11-07T06:42:00.182Z,0.00
2018-11-07T06:42:59.791Z,0.00
2018-11-07T06:43:59.749Z,0.00
2018-11-07T06:44:59.730Z,0.00
2018-11-07T06:45:59.684Z,0.00
2018-11-07T06:46:59.664Z,0.00
2018-11-07T06:47:59.620Z,0.00
2018-11-07T06:48:59.580Z,0.00
2018-11-07T06:49:59.567Z,0.00
2018-11-07T06:50:59.551Z,0.00
2018-11-07T06:51:59.484Z,0.00
2018-11-07T06:52:59.470Z,0.00
2018-11-07T06:53:59.447Z,0.00
2018-11-07T06:54:59.411Z,0.00
2018-11-07T06:55:59.359Z,0.00
2018-11-07T06:56:59.326Z,0.00
2018-11-07T06:57:59.293Z,0.00
2018-11-07T06:58:59.258Z,0.00
2018-11-07T06:59:59.227Z,0.00
2018-11-07T07:00:59.205Z,0.00
2018-11-07T07:01:59.166Z,0.00
2018-11-07T07:02:59.135Z,0.00
2018-11-07T07:03:59.300Z,0.00
2018-11-07T07:04:59.079Z,0.00
2018-11-07T07:05:59.052Z,0.00
2018-11-07T07:06:59.104Z,0.00
2018-11-07T07:07:58.980Z,0.00
2018-11-07T07:08:58.933Z,0.00
2018-11-07T07:09:58.906Z,0.00
2018-11-07T07:10:58.874Z,0.00
2018-11-07T07:11:58.841Z,0.00
2018-11-07T07:12:58.823Z,0.00
2018-11-07T07:13:58.781Z,0.00
2018-11-07T07:14:58.756Z,0.00
2018-11-07T07:15:58.710Z,0.00
2018-11-07T07:16:58.684Z,0.00
2018-11-07T07:17:58.690Z,0.00
2018-11-07T07:18:58.616Z,0.00
2018-11-07T07:19:58.598Z,0.00
2018-11-07T07:20:58.807Z,0.00
2018-11-07T07:21:58.519Z,0.00
2018-11-07T07:22:58.506Z,0.00
2018-11-07T07:23:59.652Z,0.00
2018-11-07T07:24:58.433Z,0.00
2018-11-07T07:25:58.384Z,0.00
2018-11-07T07:26:58.374Z,0.00
2018-11-07T07:27:58.337Z,0.00
2018-11-07T07:28:58.307Z,0.00
2018-11-07T07:29:58.303Z,0.00
2018-11-07T07:30:58.244Z,0.00
2018-11-07T07:31:58.441Z,0.00
2018-11-07T07:32:58.255Z,0.00
2018-11-07T07:33:58.144Z,0.00
2018-11-07T07:34:58.109Z,0.00
2018-11-07T07:35:58.098Z,0.00
2018-11-07T07:36:58.038Z,0.00
2018-11-07T07:37:58.199Z,0.00
2018-11-07T07:38:57.966Z,0.00
2018-11-07T07:39:57.964Z,0.00
2018-11-07T07:40:57.908Z,0.00
2018-11-07T07:41:57.887Z,0.00
2018-11-07T07:42:57.850Z,0.00
2018-11-07T07:43:57.880Z,0.00
2018-11-07T07:44:57.882Z,0.00
2018-11-07T07:45:57.749Z,0.00
2018-11-07T07:46:57.714Z,0.00
2018-11-07T07:47:57.683Z,0.00
2018-11-07T07:48:57.659Z,0.00
2018-11-07T07:49:57.656Z,0.00
2018-11-07T07:50:57.610Z,0.00
2018-11-07T07:51:57.554Z,0.00
2018-11-07T07:52:57.573Z,0.00
2018-11-07T07:53:57.493Z,0.00
2018-11-07T07:54:57.672Z,0.00
2018-11-07T07:55:57.436Z,0.00
2018-11-07T07:56:57.387Z,0.00
2018-11-07T07:57:57.350Z,0.00
2018-11-07T07:58:57.392Z,0.00
2018-11-07T07:59:57.353Z,0.00
2018-11-07T08:00:57.258Z,0.00
2018-11-07T08:01:57.224Z,0.00
2018-11-07T08:02:57.188Z,0.00
2018-11-07T08:03:57.175Z,0.00
2018-11-07T08:04:57.129Z,0.00
2018-11-07T08:05:57.410Z,0.00
2018-11-07T08:06:57.208Z,0.00
2018-11-07T08:07:57.045Z,0.00
2018-11-07T08:08:56.995Z,0.00
2018-11-07T08:09:56.986Z,0.00
2018-11-07T08:10:56.939Z,0.00
2018-11-07T08:11:57.113Z,0.00
2018-11-07T08:12:56.875Z,0.00
2018-11-07T08:13:56.879Z,0.00
2018-11-07T08:14:56.822Z,0.00
2018-11-07T08:15:56.777Z,0.00
2018-11-07T08:16:56.740Z,4.00
2018-11-07T08:17:56.731Z,4.00
2018-11-07T08:18:56.698Z,4.00
2018-11-07T08:19:56.662Z,4.00
2018-11-07T08:20:56.617Z,8.00
2018-11-07T08:21:56.577Z,8.00
2018-11-07T08:22:56.806Z,12.00
2018-11-07T08:23:56.511Z,12.00
2018-11-07T08:24:56.491Z,16.00
2018-11-07T08:25:56.594Z,20.00
2018-11-07T08:26:56.436Z,24.00
2018-11-07T08:27:56.387Z,24.00
2018-11-07T08:28:56.479Z,32.00
2018-11-07T08:29:56.337Z,36.00
2018-11-07T08:30:56.421Z,36.00
2018-11-07T08:31:56.249Z,40.00
2018-11-07T08:32:56.220Z,40.00
2018-11-07T08:33:56.227Z,44.00
2018-11-07T08:34:56.355Z,60.00
2018-11-07T08:35:56.148Z,68.00
2018-11-07T08:36:56.107Z,76.00
2018-11-07T08:37:56.071Z,88.00
2018-11-07T08:38:56.040Z,100.00
2018-11-07T08:39:55.994Z,120.00
2018-11-07T08:40:56.114Z,136.00
2018-11-07T08:41:55.936Z,152.00
2018-11-07T08:42:55.912Z,176.00
2018-11-07T08:43:55.865Z,200.00
2018-11-07T08:44:55.942Z,224.00
2018-11-07T08:45:55.821Z,256.00
2018-11-07T08:47:55.836Z,300.00
2018-11-07T08:48:55.815Z,316.00
2018-11-07T08:49:55.686Z,344.00
2018-11-07T08:50:55.661Z,364.00
2018-11-07T08:51:55.609Z,396.00
2018-11-07T08:52:55.573Z,436.00
2018-11-07T08:53:55.566Z,464.00
2018-11-07T08:54:55.550Z,484.00
2018-11-07T08:55:55.490Z,500.00
2018-11-07T08:56:55.441Z,536.00
2018-11-07T08:57:55.435Z,588.00
2018-11-07T08:58:55.389Z,644.00
2018-11-07T08:59:55.389Z,708.00
2018-11-07T09:00:55.343Z,760.00
2018-11-07T09:01:55.304Z,792.00
2018-11-07T09:02:55.274Z,800.00
2018-11-07T09:03:55.249Z,784.00
2018-11-07T09:04:55.191Z,752.00
2018-11-07T09:05:55.177Z,724.00
2018-11-07T09:06:55.169Z,736.00
2018-11-07T09:07:55.301Z,752.00
2018-11-07T09:08:55.069Z,744.00
2018-11-07T09:09:55.046Z,736.00
2018-11-07T09:10:54.995Z,720.00
2018-11-07T09:11:54.966Z,728.00
2018-11-07T09:12:54.931Z,728.00
2018-11-07T09:13:55.058Z,732.00
2018-11-07T09:14:54.867Z,708.00
2018-11-07T09:15:54.856Z,672.00
2018-11-07T09:16:54.832Z,640.00
2018-11-07T09:17:54.781Z,616.00
2018-11-07T09:18:54.751Z,592.00
2018-11-07T09:19:54.757Z,576.00
2018-11-07T09:20:54.707Z,560.00
2018-11-07T09:21:54.647Z,552.00
2018-11-07T09:22:54.624Z,540.00
2018-11-07T09:23:54.577Z,536.00
2018-11-07T09:24:54.757Z,532.00
2018-11-07T09:25:54.526Z,512.00
2018-11-07T09:26:54.482Z,492.00
2018-11-07T09:27:54.496Z,468.00
2018-11-07T09:28:54.427Z,456.00
2018-11-07T09:29:54.405Z,440.00
2018-11-07T09:30:54.354Z,428.00
2018-11-07T09:31:54.321Z,424.00
2018-11-07T09:32:54.282Z,432.00
2018-11-07T09:33:54.281Z,444.00
2018-11-07T09:34:54.219Z,472.00
2018-11-07T09:35:54.357Z,508.00
2018-11-07T09:36:54.177Z,540.00
2018-11-07T09:37:54.141Z,548.00
2018-11-07T09:38:54.085Z,568.00
2018-11-07T09:39:54.072Z,568.00
2018-11-07T09:40:54.039Z,500.00
2018-11-07T09:41:54.141Z,500.00
2018-11-07T09:42:53.980Z,548.00
2018-11-07T09:43:53.945Z,596.00
2018-11-07T09:44:53.913Z,668.00
2018-11-07T09:45:53.869Z,708.00
2018-11-07T09:46:53.896Z,780.00
2018-11-07T09:47:53.913Z,780.00
2018-11-07T09:48:53.766Z,780.00
2018-11-07T09:49:53.749Z,784.00
2018-11-07T09:50:53.705Z,820.00
2018-11-07T09:51:53.727Z,840.00
2018-11-07T09:52:53.643Z,916.00
2018-11-07T09:53:53.706Z,916.00
2018-11-07T09:54:53.798Z,892.00
2018-11-07T09:55:53.564Z,876.00
2018-11-07T09:56:53.518Z,888.00
2018-11-07T09:57:53.649Z,924.00
2018-11-07T09:58:53.446Z,984.00
2018-11-07T09:59:53.423Z,916.00
2018-11-07T10:00:53.383Z,1068.00
2018-11-07T10:01:53.365Z,1068.00
2018-11-07T10:02:53.396Z,1196.00
2018-11-07T10:03:53.287Z,1088.00
2018-11-07T10:04:53.260Z,1184.00
2018-11-07T10:05:53.234Z,1284.00
2018-11-07T10:06:53.220Z,1284.00
2018-11-07T10:07:53.170Z,1228.00
2018-11-07T10:08:53.478Z,1200.00
2018-11-07T10:09:53.109Z,1208.00
2018-11-07T10:10:53.069Z,1192.00
2018-11-07T10:11:53.050Z,1376.00
2018-11-07T10:12:53.005Z,1140.00
2018-11-07T10:13:52.968Z,1312.00
2018-11-07T10:14:53.239Z,1216.00
2018-11-07T10:15:52.902Z,1332.00
2018-11-07T10:16:52.869Z,1312.00
2018-11-07T10:17:52.839Z,1260.00
2018-11-07T10:18:52.822Z,1208.00
2018-11-07T10:19:52.773Z,1060.00
2018-11-07T10:20:53.004Z,1008.00
2018-11-07T10:21:52.796Z,872.00
2018-11-07T10:22:52.710Z,776.00
2018-11-07T10:23:52.658Z,744.00
2018-11-07T10:24:52.643Z,792.00
2018-11-07T10:25:52.645Z,916.00
2018-11-07T10:26:52.680Z,1044.00
2018-11-07T10:27:52.958Z,1024.00
2018-11-07T10:28:52.824Z,1196.00
2018-11-07T10:29:52.752Z,1256.00
2018-11-07T10:30:52.437Z,1084.00
2018-11-07T10:31:52.558Z,1740.00
2018-11-07T10:32:52.365Z,1852.00
2018-11-07T10:33:52.338Z,1468.00
2018-11-07T10:34:52.296Z,1276.00
2018-11-07T10:35:52.276Z,1348.00
2018-11-07T10:36:52.235Z,1720.00
2018-11-07T10:37:52.640Z,2208.00
2018-11-07T10:38:52.285Z,2280.00
2018-11-07T10:39:52.247Z,2108.00
2018-11-07T10:40:53.317Z,1820.00
2018-11-07T10:41:52.072Z,1900.00
2018-11-07T10:42:52.054Z,1908.00
2018-11-07T10:43:52.300Z,1824.00
2018-11-07T10:44:52.013Z,1852.00
2018-11-07T10:45:52.010Z,1852.00
2018-11-07T10:46:51.932Z,1720.00
2018-11-07T10:47:51.898Z,1940.00
2018-11-07T10:48:51.882Z,2024.00
2018-11-07T10:49:51.843Z,1776.00
2018-11-07T10:50:51.800Z,1996.00
2018-11-07T10:51:51.801Z,1860.00
2018-11-07T10:52:51.727Z,2176.00
2018-11-07T10:53:51.715Z,2208.00
2018-11-07T10:54:51.674Z,2460.00
2018-11-07T10:55:51.641Z,2544.00
2018-11-07T10:56:51.617Z,2472.00
2018-11-07T10:57:51.567Z,2560.00
2018-11-07T10:58:51.555Z,2820.00
2018-11-07T10:59:51.616Z,2980.00
2018-11-07T11:00:51.488Z,3168.00
2018-11-07T11:01:51.450Z,3184.00
2018-11-07T11:02:51.418Z,3024.00
2018-11-07T11:03:51.375Z,3124.00
2018-11-07T11:04:51.363Z,3456.00
2018-11-07T11:05:51.572Z,4388.00
2018-11-07T11:06:51.295Z,3508.00
2018-11-07T11:07:51.260Z,2880.00
2018-11-07T11:08:51.238Z,2356.00
2018-11-07T11:09:51.199Z,2012.00
2018-11-07T11:10:51.350Z,1868.00
2018-11-07T11:11:51.130Z,1892.00
2018-11-07T11:12:51.086Z,1988.00
2018-11-07T11:13:51.121Z,2140.00
2018-11-07T11:14:51.035Z,2412.00
2018-11-07T11:15:50.991Z,2772.00
2018-11-07T11:16:51.344Z,2708.00
2018-11-07T11:17:50.930Z,2512.00
2018-11-07T11:18:50.910Z,2392.00
2018-11-07T11:19:50.869Z,2724.00
2018-11-07T11:20:50.861Z,2708.00
2018-11-07T11:21:50.820Z,3080.00
2018-11-07T11:22:50.920Z,3768.00
2018-11-07T11:23:50.754Z,3676.00
2018-11-07T11:24:50.721Z,3096.00
2018-11-07T11:25:50.737Z,2904.00
2018-11-07T11:26:50.663Z,3488.00
2018-11-07T11:27:50.666Z,3768.00
2018-11-07T11:28:50.595Z,4008.00
2018-11-07T11:29:50.551Z,4224.00
2018-11-07T11:30:50.569Z,5108.00
2018-11-07T11:31:50.502Z,4308.00
2018-11-07T11:32:50.471Z,3868.00
2018-11-07T11:33:50.620Z,3996.00
2018-11-07T11:34:50.506Z,3764.00
2018-11-07T11:35:50.417Z,4420.00
2018-11-07T11:36:50.396Z,3820.00
2018-11-07T11:37:50.637Z,3504.00
2018-11-07T11:38:50.316Z,2552.00
2018-11-07T11:39:50.268Z,1792.00
2018-11-07T11:40:50.252Z,1336.00
2018-11-07T11:41:50.196Z,1040.00
2018-11-07T11:42:50.161Z,1052.00
2018-11-07T11:43:50.144Z,1252.00
2018-11-07T11:44:50.085Z,1568.00
2018-11-07T11:45:50.068Z,1588.00
2018-11-07T11:46:50.048Z,1620.00
2018-11-07T11:47:50.011Z,2300.00
2018-11-07T11:48:50.008Z,1780.00
2018-11-07T11:49:49.959Z,1524.00
2018-11-07T11:50:49.913Z,1436.00
2018-11-07T11:51:49.888Z,1456.00
2018-11-07T11:52:49.832Z,1540.00
2018-11-07T11:53:49.815Z,2156.00
2018-11-07T11:54:49.776Z,2200.00
2018-11-07T11:55:49.758Z,2120.00
2018-11-07T11:56:49.716Z,2520.00
2018-11-07T11:57:49.681Z,2184.00
2018-11-07T11:58:49.716Z,2232.00
2018-11-07T11:59:49.852Z,2352.00
2018-11-07T12:00:49.760Z,2868.00
2018-11-07T12:01:49.570Z,4440.00
2018-11-07T12:02:49.535Z,4396.00
2018-11-07T12:03:49.514Z,3504.00
2018-11-07T12:04:49.479Z,3100.00
2018-11-07T12:05:49.441Z,3432.00
2018-11-07T12:06:49.415Z,3560.00
2018-11-07T12:07:49.383Z,3640.00
2018-11-07T12:08:49.399Z,2836.00
2018-11-07T12:09:49.313Z,2152.00
2018-11-07T12:10:49.278Z,1972.00
2018-11-07T12:11:49.623Z,2528.00
2018-11-07T12:12:49.241Z,3048.00
2018-11-07T12:13:49.222Z,3332.00
2018-11-07T12:14:49.157Z,3060.00
2018-11-07T12:15:49.131Z,2736.00
2018-11-07T12:16:49.102Z,2200.00
2018-11-07T12:17:49.068Z,1848.00
2018-11-07T12:18:49.038Z,1668.00
2018-11-07T12:19:49.009Z,1612.00
2018-11-07T12:20:48.980Z,1948.00
2018-11-07T12:21:48.950Z,1952.00
2018-11-07T12:22:48.912Z,1552.00
2018-11-07T12:23:48.893Z,1216.00
2018-11-07T12:24:48.856Z,1160.00
2018-11-07T12:25:48.806Z,1432.00
2018-11-07T12:26:48.828Z,1808.00
2018-11-07T12:27:48.743Z,2688.00
2018-11-07T12:28:48.713Z,3660.00
2018-11-07T12:29:48.679Z,4100.00
2018-11-07T12:30:48.663Z,4124.00
2018-11-07T12:31:48.656Z,4520.00
2018-11-07T12:32:48.858Z,5776.00
2018-11-07T12:33:48.580Z,7272.00
2018-11-07T12:34:48.543Z,9100.00
2018-11-07T12:35:48.507Z,10304.00
2018-11-07T12:36:48.472Z,10620.00
2018-11-07T12:37:48.454Z,8904.00
2018-11-07T12:38:48.398Z,9476.00
2018-11-07T12:39:48.366Z,8996.00
2018-11-07T12:40:48.340Z,8044.00
2018-11-07T12:41:48.314Z,7468.00
2018-11-07T12:42:48.311Z,7456.00
2018-11-07T12:43:48.264Z,7132.00
2018-11-07T12:44:48.228Z,6680.00
2018-11-07T12:45:48.188Z,6192.00
2018-11-07T12:46:48.166Z,6456.00
2018-11-07T12:47:48.132Z,7084.00
2018-11-07T12:48:48.119Z,7100.00
2018-11-07T12:49:48.156Z,6928.00
2018-11-07T12:50:48.046Z,6188.00
2018-11-07T12:51:48.017Z,5364.00
2018-11-07T12:52:47.968Z,4600.00
2018-11-07T12:53:47.949Z,4872.00
2018-11-07T12:54:47.919Z,5912.00
2018-11-07T12:55:47.873Z,5200.00
2018-11-07T12:56:47.852Z,3724.00
2018-11-07T12:57:47.906Z,2472.00
2018-11-07T12:58:47.795Z,1948.00